Time;durP1;ratioP1;P1;durP2;ratioP2;P2;SDS_P1;SDS_P2;PMS_P1;PMS_P2;Temp;Humidity;BMP_temperature;BMP_pressure;BME280_temperature;BME280_humidity;BME280_pressure;Samples;Min_cycle;Max_cycle;Signal;HPM_P1;HPM_P2
2021/06/19 00:00:10;;;;;;;3.75;1.13;;;;;;;;;;5051612;28;20063;-87
2021/06/19 00:02:35;;;;;;;2.00;1.35;;;;;;;;;;5052104;28;20017;-87
2021/06/19 00:05:00;;;;;;;2.50;1.20;;;;;;;;;;5053475;28;20021;-87
2021/06/19 00:07:26;;;;;;;2.63;1.10;;;;;;;;;;5051795;28;20063;-87
2021/06/19 00:09:51;;;;;;;5.00;1.08;;;;;;;;;;5051961;28;20017;-86
2021/06/19 00:12:17;;;;;;;3.55;1.30;;;;;;;;;;5051723;28;20043;-87
2021/06/19 00:14:42;;;;;;;1.98;1.30;;;;;;;;;;5049968;28;20063;-86
2021/06/19 00:17:08;;;;;;;3.47;1.55;;;;;;;;;;5053110;28;20027;-86
2021/06/19 00:19:34;;;;;;;3.95;1.40;;;;;;;;;;5051670;28;20495;-86
2021/06/19 00:21:59;;;;;;;3.13;1.20;;;;;;;;;;5051622;28;20013;-87
2021/06/19 00:24:24;;;;;;;1.60;1.50;;;;;;;;;;5051810;28;20025;-86
2021/06/19 00:26:51;;;;;;;1.83;1.30;;;;;;;;;;5084353;28;20064;-87
2021/06/19 00:29:16;;;;;;;4.45;1.45;;;;;;;;;;5080034;28;20461;-87
2021/06/19 00:31:42;;;;;;;4.53;1.50;;;;;;;;;;5051380;28;20087;-86
2021/06/19 00:34:07;;;;;;;6.78;1.70;;;;;;;;;;5051754;28;20029;-87
2021/06/19 00:36:32;;;;;;;4.47;1.88;;;;;;;;;;5051151;28;20413;-86
2021/06/19 00:38:58;;;;;;;2.47;1.52;;;;;;;;;;5051414;28;20434;-86
2021/06/19 00:41:23;;;;;;;3.53;1.52;;;;;;;;;;5051596;28;20021;-87
2021/06/19 00:43:48;;;;;;;2.10;1.75;;;;;;;;;;5084135;28;20112;-87
2021/06/19 00:46:14;;;;;;;5.50;1.60;;;;;;;;;;5052703;28;20016;-87
2021/06/19 00:48:39;;;;;;;5.88;1.85;;;;;;;;;;5050923;28;20036;-87
2021/06/19 00:51:04;;;;;;;4.28;1.63;;;;;;;;;;5051482;28;20032;-87
2021/06/19 00:53:31;;;;;;;8.23;2.08;;;;;;;;;;5051435;28;20053;-87
2021/06/19 00:55:56;;;;;;;3.50;1.80;;;;;;;;;;5051114;28;20031;-87
2021/06/19 00:58:21;;;;;;;5.75;1.85;;;;;;;;;;5051221;28;20017;-87
2021/06/19 01:00:47;;;;;;;2.53;1.60;;;;;;;;;;5050747;28;20078;-87
2021/06/19 01:03:13;;;;;;;3.13;1.80;;;;;;;;;;5051018;28;20048;-87
2021/06/19 01:05:38;;;;;;;6.38;1.83;;;;;;;;;;5050918;28;20016;-86
2021/06/19 01:08:03;;;;;;;3.35;1.92;;;;;;;;;;5050786;28;20103;-87
2021/06/19 01:10:29;;;;;;;6.50;2.30;;;;;;;;;;5051214;28;20613;-87
2021/06/19 01:12:54;;;;;;;4.32;2.10;;;;;;;;;;5052028;28;20029;-87
2021/06/19 01:15:20;;;;;;;4.07;1.98;;;;;;;;;;5050848;28;20077;-87
2021/06/19 01:17:46;;;;;;;1.98;1.77;;;;;;;;;;5050776;28;20021;-87
2021/06/19 01:20:13;;;;;;;5.45;2.13;;;;;;;;;;5050362;28;20017;-87
2021/06/19 01:22:39;;;;;;;2.90;2.17;;;;;;;;;;5051667;28;20021;-87
2021/06/19 01:25:05;;;;;;;3.47;2.20;;;;;;;;;;5050820;28;20103;-87
2021/06/19 01:27:31;;;;;;;3.10;2.03;;;;;;;;;;5052134;28;20051;-87
2021/06/19 01:29:57;;;;;;;2.55;1.98;;;;;;;;;;5050473;28;20084;-87
2021/06/19 01:32:24;;;;;;;7.25;2.13;;;;;;;;;;5050755;28;20017;-87
2021/06/19 01:34:49;;;;;;;2.90;1.88;;;;;;;;;;5050627;28;20021;-87
2021/06/19 01:37:15;;;;;;;9.68;2.20;;;;;;;;;;5050452;28;20495;-87
2021/06/19 01:39:40;;;;;;;7.13;2.40;;;;;;;;;;5050271;28;20060;-87
2021/06/19 01:42:06;;;;;;;7.90;2.08;;;;;;;;;;5050448;28;20077;-87
2021/06/19 01:44:32;;;;;;;3.53;2.20;;;;;;;;;;5050501;28;20031;-87
2021/06/19 01:46:58;;;;;;;5.90;2.45;;;;;;;;;;5050475;28;20017;-87
2021/06/19 01:49:30;;;;;;;11.95;2.85;;;;;;;;;;5050381;28;20043;-87
2021/06/19 01:51:55;;;;;;;5.68;2.10;;;;;;;;;;5050486;28;20119;-87
2021/06/19 01:54:20;;;;;;;6.13;2.05;;;;;;;;;;5050400;28;20104;-87
2021/06/19 01:56:45;;;;;;;11.02;2.15;;;;;;;;;;5050041;28;20021;-87
2021/06/19 01:59:10;;;;;;;7.75;2.00;;;;;;;;;;5050264;28;20017;-87
2021/06/19 02:01:36;;;;;;;3.08;1.92;;;;;;;;;;5050810;28;20456;-87
2021/06/19 02:04:01;;;;;;;5.57;2.35;;;;;;;;;;5050624;28;20032;-87
2021/06/19 02:06:26;;;;;;;3.42;2.20;;;;;;;;;;5049637;28;20709;-87
2021/06/19 02:09:07;;;;;;;2.35;1.70;;;;;;;;;;5050181;28;20032;-87
2021/06/19 02:11:33;;;;;;;5.63;1.92;;;;;;;;;;5049974;28;20036;-87
2021/06/19 02:14:00;;;;;;;3.47;2.20;;;;;;;;;;5050225;28;20060;-87
2021/06/19 02:16:25;;;;;;;4.20;1.95;;;;;;;;;;5050172;28;20127;-87
2021/06/19 02:18:50;;;;;;;3.13;1.98;;;;;;;;;;5050266;28;20223;-87
2021/06/19 02:21:16;;;;;;;2.38;1.70;;;;;;;;;;5050310;28;20078;-87
2021/06/19 02:23:41;;;;;;;5.20;1.83;;;;;;;;;;5049926;28;20058;-87
2021/06/19 02:26:07;;;;;;;2.47;1.88;;;;;;;;;;5050246;28;20500;-87
2021/06/19 02:28:32;;;;;;;2.75;1.80;;;;;;;;;;5050237;28;20029;-88
2021/06/19 02:30:58;;;;;;;3.78;1.88;;;;;;;;;;5050413;28;20104;-87
2021/06/19 02:33:24;;;;;;;4.72;1.95;;;;;;;;;;5050069;28;20024;-87
2021/06/19 02:35:49;;;;;;;3.03;1.73;;;;;;;;;;5049771;28;20025;-88
2021/06/19 02:38:15;;;;;;;4.50;1.90;;;;;;;;;;5049765;28;20028;-87
2021/06/19 02:40:41;;;;;;;5.20;1.90;;;;;;;;;;5049605;28;20017;-87
2021/06/19 02:43:07;;;;;;;4.07;2.08;;;;;;;;;;5051347;28;20027;-87
2021/06/19 02:45:32;;;;;;;5.18;1.75;;;;;;;;;;5049854;28;20024;-87
2021/06/19 02:47:58;;;;;;;6.35;2.33;;;;;;;;;;5050051;28;20044;-87
2021/06/19 02:50:25;;;;;;;5.38;1.65;;;;;;;;;;5053160;28;20021;-88
2021/06/19 02:52:50;;;;;;;3.15;1.80;;;;;;;;;;5053702;28;20032;-87
2021/06/19 02:55:16;;;;;;;2.65;1.95;;;;;;;;;;5053243;28;20025;-87
2021/06/19 02:57:42;;;;;;;4.53;2.00;;;;;;;;;;5052954;28;20032;-87
2021/06/19 03:00:08;;;;;;;3.85;1.92;;;;;;;;;;5053024;28;20017;-87
2021/06/19 03:02:33;;;;;;;2.70;1.67;;;;;;;;;;5053238;28;20070;-87
2021/06/19 03:04:59;;;;;;;4.32;1.67;;;;;;;;;;5053216;28;20111;-88
2021/06/19 03:07:24;;;;;;;3.85;1.85;;;;;;;;;;5054336;28;20498;-87
2021/06/19 03:09:49;;;;;;;2.45;2.17;;;;;;;;;;5052779;28;20021;-88
2021/06/19 03:12:14;;;;;;;3.85;2.10;;;;;;;;;;5053191;28;20052;-87
2021/06/19 03:14:40;;;;;;;3.47;2.47;;;;;;;;;;5053321;28;20079;-87
2021/06/19 03:17:05;;;;;;;7.95;2.20;;;;;;;;;;5052667;28;20353;-87
2021/06/19 03:19:30;;;;;;;6.72;2.75;;;;;;;;;;5053097;28;20056;-88
2021/06/19 03:21:59;;;;;;;7.50;2.75;;;;;;;;;;5052659;28;20087;-87
2021/06/19 03:24:24;;;;;;;3.15;2.60;;;;;;;;;;5054430;28;20096;-87
2021/06/19 03:26:50;;;;;;;7.72;2.85;;;;;;;;;;5052753;28;20048;-88
2021/06/19 03:29:15;;;;;;;5.25;2.75;;;;;;;;;;5052465;28;20082;-88
2021/06/19 03:31:40;;;;;;;3.60;2.95;;;;;;;;;;5052597;28;20067;-87
2021/06/19 03:34:05;;;;;;;4.45;2.95;;;;;;;;;;5052571;28;20112;-87
2021/06/19 03:36:31;;;;;;;6.30;3.30;;;;;;;;;;5052667;28;20415;-88
2021/06/19 03:38:56;;;;;;;4.63;2.95;;;;;;;;;;5053679;28;20331;-88
2021/06/19 03:41:21;;;;;;;5.45;2.95;;;;;;;;;;5052378;28;20100;-87
2021/06/19 03:43:46;;;;;;;4.53;2.95;;;;;;;;;;5052533;28;20033;-88
2021/06/19 03:46:11;;;;;;;4.32;3.08;;;;;;;;;;5053696;28;20496;-87
2021/06/19 03:48:37;;;;;;;6.45;3.22;;;;;;;;;;5052320;28;20120;-87
2021/06/19 03:51:02;;;;;;;6.00;3.90;;;;;;;;;;5052655;28;20032;-87
2021/06/19 03:53:27;;;;;;;10.95;3.70;;;;;;;;;;5052185;28;20037;-87
2021/06/19 03:55:52;;;;;;;4.82;3.20;;;;;;;;;;5052215;28;20029;-88
2021/06/19 03:58:18;;;;;;;4.47;3.60;;;;;;;;;;5051935;28;20392;-87
2021/06/19 04:00:43;;;;;;;9.02;3.72;;;;;;;;;;5050940;28;20017;-87
2021/06/19 04:03:08;;;;;;;4.95;3.33;;;;;;;;;;5052378;28;20021;-88
2021/06/19 04:05:33;;;;;;;4.65;3.45;;;;;;;;;;5051806;28;20017;-87
2021/06/19 04:07:58;;;;;;;6.13;3.35;;;;;;;;;;5053294;28;20029;-87
2021/06/19 04:10:25;;;;;;;6.00;3.50;;;;;;;;;;5052823;28;20035;-88
2021/06/19 04:12:51;;;;;;;4.28;3.28;;;;;;;;;;5051736;28;20513;-87
2021/06/19 04:15:16;;;;;;;6.05;3.67;;;;;;;;;;5052677;28;20029;-87
2021/06/19 04:17:42;;;;;;;4.30;3.72;;;;;;;;;;5051505;28;20025;-87
2021/06/19 04:20:08;;;;;;;6.10;3.92;;;;;;;;;;5053319;28;20452;-87
2021/06/19 04:22:34;;;;;;;8.35;3.92;;;;;;;;;;5052479;28;20079;-87
2021/06/19 04:24:59;;;;;;;7.00;3.95;;;;;;;;;;5051723;28;20041;-87
2021/06/19 04:27:24;;;;;;;5.93;4.03;;;;;;;;;;5051643;28;20353;-87
2021/06/19 04:29:50;;;;;;;6.13;3.78;;;;;;;;;;5051547;28;20117;-87
2021/06/19 04:32:16;;;;;;;6.18;3.92;;;;;;;;;;5052998;28;20017;-87
2021/06/19 04:34:44;;;;;;;7.63;4.22;;;;;;;;;;5051377;28;20028;-88
2021/06/19 04:37:18;;;;;;;5.63;4.18;;;;;;;;;;5051300;28;20025;-87
2021/06/19 04:42:48;;;;;;;8.30;4.55;;;;;;;;;;5030500;28;20205;-88
2021/06/19 04:45:14;;;;;;;7.32;4.40;;;;;;;;;;5041509;28;20063;-88
2021/06/19 04:47:39;;;;;;;6.47;4.03;;;;;;;;;;5052335;28;20029;-87
2021/06/19 04:50:06;;;;;;;5.45;3.92;;;;;;;;;;5050951;28;20021;-88
2021/06/19 04:52:33;;;;;;;6.18;3.85;;;;;;;;;;5051136;28;20380;-87
2021/06/19 04:54:58;;;;;;;6.82;4.20;;;;;;;;;;5050718;28;20483;-87
2021/06/19 04:57:24;;;;;;;5.32;3.95;;;;;;;;;;5050946;28;20013;-88
2021/06/19 04:59:49;;;;;;;7.55;3.70;;;;;;;;;;5070962;28;20527;-87
2021/06/19 05:02:15;;;;;;;7.43;3.95;;;;;;;;;;5050617;28;20437;-87
2021/06/19 05:04:41;;;;;;;4.63;3.58;;;;;;;;;;5051057;28;20020;-87
2021/06/19 05:07:06;;;;;;;7.20;3.90;;;;;;;;;;5048198;28;20389;-88
2021/06/19 05:09:31;;;;;;;5.70;3.95;;;;;;;;;;5050957;28;20487;-88
2021/06/19 05:11:56;;;;;;;8.73;4.45;;;;;;;;;;5048720;28;20104;-87
2021/06/19 05:14:21;;;;;;;7.03;4.35;;;;;;;;;;5050752;28;20044;-87
2021/06/19 05:16:47;;;;;;;5.97;3.78;;;;;;;;;;5050491;28;20490;-87
2021/06/19 05:19:12;;;;;;;6.55;4.05;;;;;;;;;;5048769;28;20024;-88
2021/06/19 05:21:38;;;;;;;5.55;3.97;;;;;;;;;;5052707;28;20484;-90
2021/06/19 05:24:03;;;;;;;5.13;4.35;;;;;;;;;;5051741;28;20025;-91
2021/06/19 05:26:29;;;;;;;8.07;4.75;;;;;;;;;;5051648;28;20501;-90
2021/06/19 05:28:54;;;;;;;7.32;4.82;;;;;;;;;;5051906;28;20032;-89
2021/06/19 05:31:19;;;;;;;6.40;5.18;;;;;;;;;;5052909;28;20641;-90
2021/06/19 05:33:44;;;;;;;5.47;4.35;;;;;;;;;;5051923;28;20029;-90
2021/06/19 05:36:09;;;;;;;9.20;5.75;;;;;;;;;;5051612;28;20021;-90
2021/06/19 05:38:34;;;;;;;10.20;5.72;;;;;;;;;;5051630;28;20025;-90
2021/06/19 05:41:00;;;;;;;8.15;5.28;;;;;;;;;;5051254;28;20109;-90
2021/06/19 05:43:25;;;;;;;9.45;5.70;;;;;;;;;;5051245;28;20029;-89
2021/06/19 05:45:52;;;;;;;13.25;6.25;;;;;;;;;;5051562;28;20029;-90
2021/06/19 05:48:17;;;;;;;10.52;6.38;;;;;;;;;;5051341;28;20476;-90
2021/06/19 05:50:43;;;;;;;8.43;5.93;;;;;;;;;;5051108;28;20120;-89
2021/06/19 05:53:08;;;;;;;7.88;6.60;;;;;;;;;;5051174;28;20189;-90
2021/06/19 05:55:33;;;;;;;8.13;6.35;;;;;;;;;;5050243;28;20387;-89
2021/06/19 05:57:58;;;;;;;9.98;6.47;;;;;;;;;;5051385;28;20037;-89
2021/06/19 06:00:23;;;;;;;9.60;6.20;;;;;;;;;;5051010;28;20100;-90
2021/06/19 06:02:49;;;;;;;8.73;6.50;;;;;;;;;;5051370;28;20067;-89
2021/06/19 06:05:14;;;;;;;11.65;6.60;;;;;;;;;;5051336;28;20025;-90
2021/06/19 06:07:39;;;;;;;11.05;6.20;;;;;;;;;;5052798;28;20037;-89
2021/06/19 06:10:05;;;;;;;7.18;5.95;;;;;;;;;;5051137;28;20037;-91
2021/06/19 06:12:31;;;;;;;10.98;6.28;;;;;;;;;;5050698;28;20017;-89
2021/06/19 06:14:59;;;;;;;12.13;6.75;;;;;;;;;;5050837;28;20024;-89
2021/06/19 06:17:25;;;;;;;9.00;6.35;;;;;;;;;;5050358;28;20041;-89
2021/06/19 06:19:50;;;;;;;9.75;6.18;;;;;;;;;;5050650;28;20035;-89
2021/06/19 06:22:16;;;;;;;11.35;6.93;;;;;;;;;;5050595;28;20089;-89
2021/06/19 06:24:41;;;;;;;10.63;7.60;;;;;;;;;;5053627;28;20009;-89
2021/06/19 06:27:06;;;;;;;9.73;6.95;;;;;;;;;;5055173;28;20021;-89
2021/06/19 06:29:31;;;;;;;12.13;6.50;;;;;;;;;;5055027;28;20025;-90
2021/06/19 06:31:57;;;;;;;11.52;6.82;;;;;;;;;;5054894;28;20490;-90
2021/06/19 06:34:25;;;;;;;9.25;6.20;;;;;;;;;;5055335;28;20490;-90
2021/06/19 06:36:51;;;;;;;8.90;6.22;;;;;;;;;;5054783;28;20468;-92
2021/06/19 06:39:16;;;;;;;10.32;6.43;;;;;;;;;;5054668;28;20024;-89
2021/06/19 06:41:41;;;;;;;14.50;7.05;;;;;;;;;;5054581;28;20017;-89
2021/06/19 06:44:07;;;;;;;8.73;6.35;;;;;;;;;;5054724;28;20092;-89
2021/06/19 06:46:32;;;;;;;8.57;6.32;;;;;;;;;;5055809;28;20032;-89
2021/06/19 06:48:57;;;;;;;11.25;6.45;;;;;;;;;;5038338;28;20059;-89
2021/06/19 06:51:22;;;;;;;14.73;7.13;;;;;;;;;;5054597;28;20044;-88
2021/06/19 06:53:48;;;;;;;10.18;5.95;;;;;;;;;;5054561;28;20083;-90
2021/06/19 06:56:13;;;;;;;8.68;5.22;;;;;;;;;;5054574;28;20017;-90
2021/06/19 06:58:38;;;;;;;6.40;4.30;;;;;;;;;;5054375;28;20031;-89
2021/06/19 07:01:03;;;;;;;5.75;4.20;;;;;;;;;;5054516;28;20480;-90
2021/06/19 07:03:28;;;;;;;6.32;4.90;;;;;;;;;;5054240;28;20025;-89
2021/06/19 07:05:54;;;;;;;9.05;4.97;;;;;;;;;;5054284;28;20025;-90
2021/06/19 07:08:19;;;;;;;9.68;4.80;;;;;;;;;;5054154;28;20025;-89
2021/06/19 07:10:44;;;;;;;10.05;5.22;;;;;;;;;;5053701;28;20180;-89
2021/06/19 07:13:09;;;;;;;6.65;4.65;;;;;;;;;;5055612;28;20025;-89
2021/06/19 07:15:35;;;;;;;9.27;4.97;;;;;;;;;;5053901;28;20025;-90
2021/06/19 07:18:00;;;;;;;6.97;5.07;;;;;;;;;;5055134;28;20419;-90
2021/06/19 07:20:26;;;;;;;7.35;4.00;;;;;;;;;;5053548;28;20033;-90
2021/06/19 07:22:51;;;;;;;6.88;5.15;;;;;;;;;;5053737;28;20088;-91
2021/06/19 07:25:16;;;;;;;9.73;5.13;;;;;;;;;;5053805;28;20409;-88
2021/06/19 07:27:42;;;;;;;8.85;4.95;;;;;;;;;;5053213;28;20021;-88
2021/06/19 07:30:08;;;;;;;7.60;4.90;;;;;;;;;;5052463;28;20033;-87
2021/06/19 07:32:34;;;;;;;5.00;4.25;;;;;;;;;;5053204;28;20022;-88
2021/06/19 07:34:59;;;;;;;5.97;4.40;;;;;;;;;;5053601;28;20028;-94
2021/06/19 07:37:25;;;;;;;6.68;4.63;;;;;;;;;;5054361;28;20017;-92
2021/06/19 07:39:53;;;;;;;7.55;4.43;;;;;;;;;;5054094;28;20494;-93
2021/06/19 07:42:18;;;;;;;7.93;4.50;;;;;;;;;;5054679;28;20063;-92
2021/06/19 07:44:43;;;;;;;8.38;4.35;;;;;;;;;;5051407;28;20123;-92
2021/06/19 07:47:09;;;;;;;5.70;4.78;;;;;;;;;;5054196;28;20032;-92
2021/06/19 07:49:34;;;;;;;6.32;4.90;;;;;;;;;;5054115;28;20040;-92
2021/06/19 07:52:01;;;;;;;9.00;5.22;;;;;;;;;;5053777;28;20023;-93
2021/06/19 07:54:26;;;;;;;6.00;3.92;;;;;;;;;;5053908;28;20037;-92
2021/06/19 07:56:51;;;;;;;10.02;5.18;;;;;;;;;;5053902;28;20105;-92
2021/06/19 07:59:17;;;;;;;7.13;4.80;;;;;;;;;;5053500;28;20472;-92
2021/06/19 08:01:42;;;;;;;6.20;4.43;;;;;;;;;;5053862;28;20021;-91
2021/06/19 08:04:07;;;;;;;7.50;5.05;;;;;;;;;;5053882;28;20522;-91
2021/06/19 08:06:32;;;;;;;5.93;5.00;;;;;;;;;;5053724;28;20375;-92
2021/06/19 08:08:58;;;;;;;5.32;4.82;;;;;;;;;;5053702;28;20017;-92
2021/06/19 08:11:23;;;;;;;7.95;4.63;;;;;;;;;;5054364;28;20028;-93
2021/06/19 08:13:49;;;;;;;7.80;5.40;;;;;;;;;;5053161;28;20365;-92
2021/06/19 08:16:17;;;;;;;6.63;4.28;;;;;;;;;;5053442;28;20158;-92
2021/06/19 08:18:42;;;;;;;7.32;4.43;;;;;;;;;;5053321;28;20021;-93
2021/06/19 08:21:07;;;;;;;6.55;4.40;;;;;;;;;;5053311;28;20338;-92
2021/06/19 08:23:32;;;;;;;4.55;4.05;;;;;;;;;;5054355;28;20040;-92
2021/06/19 08:25:58;;;;;;;7.68;5.55;;;;;;;;;;5053396;28;20482;-93
2021/06/19 08:28:23;;;;;;;7.07;4.70;;;;;;;;;;5053030;28;20107;-92
2021/06/19 08:30:48;;;;;;;9.25;5.05;;;;;;;;;;5053332;28;20025;-92
2021/06/19 08:33:13;;;;;;;6.65;5.10;;;;;;;;;;5053022;28;20104;-92
2021/06/19 08:35:38;;;;;;;8.20;5.22;;;;;;;;;;5054490;28;20451;-92
2021/06/19 08:38:04;;;;;;;6.93;5.00;;;;;;;;;;5052866;28;20024;-92
2021/06/19 08:40:31;;;;;;;14.18;5.45;;;;;;;;;;5053014;28;20051;-92
2021/06/19 08:42:56;;;;;;;6.80;4.72;;;;;;;;;;5052800;28;20028;-91
2021/06/19 08:45:23;;;;;;;8.40;4.38;;;;;;;;;;5052623;28;20021;-92
2021/06/19 08:47:48;;;;;;;6.30;4.93;;;;;;;;;;5051828;28;20032;-92
2021/06/19 08:50:14;;;;;;;7.28;5.00;;;;;;;;;;5052591;28;20021;-92
2021/06/19 08:52:40;;;;;;;7.03;4.85;;;;;;;;;;5052819;28;20025;-92
2021/06/19 08:55:08;;;;;;;8.48;5.53;;;;;;;;;;5052324;28;20160;-91
2021/06/19 08:57:33;;;;;;;6.78;4.72;;;;;;;;;;5052507;28;20021;-92
2021/06/19 08:59:59;;;;;;;11.27;5.40;;;;;;;;;;5052445;28;20029;-93
2021/06/19 09:02:24;;;;;;;7.85;4.63;;;;;;;;;;5052786;28;20021;-93
2021/06/19 09:04:50;;;;;;;6.03;4.70;;;;;;;;;;5052512;28;20425;-92
2021/06/19 09:07:33;;;;;;;7.57;4.85;;;;;;;;;;5052304;28;20048;-92
2021/06/19 09:10:14;;;;;;;7.57;4.25;;;;;;;;;;5052347;28;20049;-91
2021/06/19 09:12:39;;;;;;;11.52;4.88;;;;;;;;;;5075414;28;20029;-93
2021/06/19 09:15:14;;;;;;;8.27;5.18;;;;;;;;;;5052454;28;20051;-92
2021/06/19 09:17:39;;;;;;;7.60;4.68;;;;;;;;;;5048681;28;20036;-92
2021/06/19 09:20:05;;;;;;;6.95;4.18;;;;;;;;;;5052644;28;20025;-93
2021/06/19 09:22:30;;;;;;;6.95;4.13;;;;;;;;;;5052465;28;20390;-92
2021/06/19 09:24:57;;;;;;;6.35;5.45;;;;;;;;;;5052165;28;20067;-94
2021/06/19 09:27:30;;;;;;;7.90;5.03;;;;;;;;;;5052202;28;20017;-93
2021/06/19 09:30:13;;;;;;;7.82;4.85;;;;;;;;;;5052122;28;20094;-93
2021/06/19 09:32:55;;;;;;;7.03;4.82;;;;;;;;;;5052334;28;20020;-91
2021/06/19 09:35:26;;;;;;;8.52;5.25;;;;;;;;;;5052160;28;20135;-91
2021/06/19 09:38:12;;;;;;;10.07;4.82;;;;;;;;;;5051921;28;20388;-91
2021/06/19 09:40:47;;;;;;;9.13;4.35;;;;;;;;;;5052055;28;20013;-92
2021/06/19 09:43:17;;;;;;;10.57;6.07;;;;;;;;;;5051101;28;20108;-89
2021/06/19 09:45:46;;;;;;;8.93;6.05;;;;;;;;;;5051781;28;20027;-88
2021/06/19 09:48:45;;;;;;;24.13;6.32;;;;;;;;;;5051570;28;20021;-88
2021/06/19 09:51:10;;;;;;;10.77;5.07;;;;;;;;;;5042765;28;20473;-88
2021/06/19 09:53:35;;;;;;;19.00;5.70;;;;;;;;;;5050707;28;20024;-88
2021/06/19 09:56:02;;;;;;;23.98;6.65;;;;;;;;;;5051653;28;20467;-88
2021/06/19 09:58:37;;;;;;;24.90;6.38;;;;;;;;;;5052487;28;20025;-88
2021/06/19 10:01:02;;;;;;;13.57;6.60;;;;;;;;;;5055517;28;20062;-88
2021/06/19 10:03:27;;;;;;;19.15;6.28;;;;;;;;;;5086707;28;20524;-88
2021/06/19 10:05:53;;;;;;;8.63;6.65;;;;;;;;;;5055568;28;20021;-88
2021/06/19 10:08:18;;;;;;;9.63;6.95;;;;;;;;;;5055530;28;20021;-88
2021/06/19 10:10:45;;;;;;;12.90;6.70;;;;;;;;;;5055156;28;20107;-87
2021/06/19 10:13:10;;;;;;;9.30;7.32;;;;;;;;;;5055026;28;20416;-87
2021/06/19 10:15:35;;;;;;;13.20;6.40;;;;;;;;;;5054925;28;20121;-88
2021/06/19 10:18:00;;;;;;;11.65;6.80;;;;;;;;;;5055460;28;20032;-88
2021/06/19 10:20:27;;;;;;;20.55;6.95;;;;;;;;;;5054931;28;20017;-88
2021/06/19 10:22:52;;;;;;;13.88;6.13;;;;;;;;;;5055283;28;20078;-88
2021/06/19 10:25:22;;;;;;;16.02;6.28;;;;;;;;;;5056244;28;20017;-88
2021/06/19 10:27:48;;;;;;;8.98;6.53;;;;;;;;;;5054605;28;20063;-88
2021/06/19 10:30:14;;;;;;;9.55;6.50;;;;;;;;;;5056336;28;20490;-88
2021/06/19 10:32:43;;;;;;;7.75;6.22;;;;;;;;;;5054799;28;20150;-88
2021/06/19 10:35:11;;;;;;;11.75;6.20;;;;;;;;;;5054881;28;20062;-88
2021/06/19 10:37:36;;;;;;;9.82;7.00;;;;;;;;;;5054876;28;20067;-88
2021/06/19 10:40:18;;;;;;;12.18;7.78;;;;;;;;;;5054431;28;20043;-88
2021/06/19 10:42:46;;;;;;;16.40;7.10;;;;;;;;;;5054981;28;20476;-88
2021/06/19 10:45:14;;;;;;;14.77;7.47;;;;;;;;;;5054623;28;20531;-88
2021/06/19 10:47:58;;;;;;;18.25;7.85;;;;;;;;;;5054475;28;20025;-89
2021/06/19 10:50:24;;;;;;;13.25;8.07;;;;;;;;;;5055745;28;20100;-88
2021/06/19 10:53:08;;;;;;;12.10;7.70;;;;;;;;;;5055788;28;20045;-88
2021/06/19 10:55:34;;;;;;;12.35;7.78;;;;;;;;;;5051672;28;20472;-89
2021/06/19 10:58:01;;;;;;;14.30;8.88;;;;;;;;;;5059476;28;20016;-89
2021/06/19 11:00:26;;;;;;;23.40;8.02;;;;;;;;;;5054563;28;20078;-88
2021/06/19 11:02:53;;;;;;;15.52;9.18;;;;;;;;;;5046922;28;20367;-89
2021/06/19 11:05:37;;;;;;;15.68;8.75;;;;;;;;;;5054328;28;20042;-89
2021/06/19 11:08:02;;;;;;;14.48;8.15;;;;;;;;;;5061881;28;20021;-90
2021/06/19 11:10:49;;;;;;;13.32;9.15;;;;;;;;;;5053373;28;20139;-89
2021/06/19 11:13:30;;;;;;;18.35;9.13;;;;;;;;;;5054343;28;20410;-88
2021/06/19 11:15:56;;;;;;;15.80;9.73;;;;;;;;;;5054029;28;20021;-88
2021/06/19 11:18:40;;;;;;;13.82;8.82;;;;;;;;;;5048667;28;20124;-88
2021/06/19 11:21:12;;;;;;;14.15;8.98;;;;;;;;;;5070515;28;20017;-88
2021/06/19 11:23:56;;;;;;;13.40;9.80;;;;;;;;;;5054082;28;20017;-89
2021/06/19 11:26:40;;;;;;;17.30;11.48;;;;;;;;;;5053942;28;20464;-89
2021/06/19 11:29:24;;;;;;;13.77;10.35;;;;;;;;;;5057681;28;20053;-88
2021/06/19 11:31:49;;;;;;;21.23;11.98;;;;;;;;;;5051911;28;20028;-87
2021/06/19 11:34:33;;;;;;;18.73;11.85;;;;;;;;;;5055143;28;20053;-89
2021/06/19 11:36:59;;;;;;;17.23;11.82;;;;;;;;;;5051932;28;20020;-89
2021/06/19 11:39:31;;;;;;;22.52;10.00;;;;;;;;;;5054278;28;20086;-89
2021/06/19 11:41:57;;;;;;;13.18;10.48;;;;;;;;;;5053495;28;20016;-88
2021/06/19 11:44:24;;;;;;;15.68;10.48;;;;;;;;;;5053879;28;20460;-88
2021/06/19 11:46:50;;;;;;;18.27;10.82;;;;;;;;;;5054814;28;20450;-88
2021/06/19 11:49:17;;;;;;;17.48;11.60;;;;;;;;;;5053775;28;20464;-89
2021/06/19 11:51:46;;;;;;;18.08;12.23;;;;;;;;;;5053699;28;20593;-89
2021/06/19 11:54:14;;;;;;;14.80;11.27;;;;;;;;;;5053467;28;20024;-89
2021/06/19 11:56:40;;;;;;;19.35;11.32;;;;;;;;;;5053132;28;20028;-89
2021/06/19 11:59:06;;;;;;;16.08;10.55;;;;;;;;;;5052969;28;20537;-89
2021/06/19 12:01:31;;;;;;;16.33;12.52;;;;;;;;;;5054612;28;20115;-88
2021/06/19 12:03:59;;;;;;;14.60;10.82;;;;;;;;;;5053668;28;20110;-88
2021/06/19 12:06:29;;;;;;;16.30;11.90;;;;;;;;;;5053039;28;20043;-89
2021/06/19 12:08:54;;;;;;;15.38;10.77;;;;;;;;;;5052938;28;20021;-89
2021/06/19 12:11:27;;;;;;;15.38;9.98;;;;;;;;;;5052757;28;20032;-87
2021/06/19 12:13:52;;;;;;;18.42;10.13;;;;;;;;;;5052879;28;20388;-88
2021/06/19 12:16:17;;;;;;;17.98;10.63;;;;;;;;;;5052904;28;20013;-88
2021/06/19 12:18:47;;;;;;;17.35;11.60;;;;;;;;;;5053734;28;20062;-89
2021/06/19 12:21:13;;;;;;;16.45;10.88;;;;;;;;;;5051575;28;20468;-87
2021/06/19 12:23:42;;;;;;;15.70;10.57;;;;;;;;;;5052860;28;20027;-88
2021/06/19 12:26:09;;;;;;;21.08;13.00;;;;;;;;;;5052609;28;20412;-88
2021/06/19 12:28:38;;;;;;;19.88;12.63;;;;;;;;;;5052785;28;20786;-88
2021/06/19 12:31:04;;;;;;;16.00;11.68;;;;;;;;;;5052738;28;20416;-88
2021/06/19 12:33:30;;;;;;;16.63;12.27;;;;;;;;;;5052810;28;20029;-89
2021/06/19 12:35:56;;;;;;;18.92;11.80;;;;;;;;;;5052995;28;20020;-89
2021/06/19 12:38:22;;;;;;;19.55;13.10;;;;;;;;;;5052964;28;20024;-88
2021/06/19 12:40:48;;;;;;;18.42;11.68;;;;;;;;;;5052448;28;20021;-89
2021/06/19 12:43:14;;;;;;;20.33;11.50;;;;;;;;;;5052422;28;20350;-89
2021/06/19 12:45:43;;;;;;;23.30;11.07;;;;;;;;;;5052444;28;20028;-88
2021/06/19 12:48:21;;;;;;;17.77;11.35;;;;;;;;;;5051974;28;20053;-89
2021/06/19 12:50:47;;;;;;;17.55;12.15;;;;;;;;;;5077374;28;20025;-88
2021/06/19 12:53:13;;;;;;;20.95;12.32;;;;;;;;;;5053230;28;20142;-88
2021/06/19 12:55:40;;;;;;;15.60;11.45;;;;;;;;;;5052005;28;20017;-89
2021/06/19 12:58:09;;;;;;;23.05;11.43;;;;;;;;;;5052169;28;20024;-89
2021/06/19 13:00:36;;;;;;;19.35;12.90;;;;;;;;;;5051816;28;20052;-89
2021/06/19 13:03:01;;;;;;;16.67;11.07;;;;;;;;;;5051948;28;20438;-89
2021/06/19 13:05:26;;;;;;;17.25;9.73;;;;;;;;;;5048315;28;20155;-88
2021/06/19 13:08:07;;;;;;;24.17;11.77;;;;;;;;;;5051803;28;20021;-89
2021/06/19 13:10:33;;;;;;;22.02;10.70;;;;;;;;;;5052398;28;20542;-89
2021/06/19 13:12:58;;;;;;;15.55;10.32;;;;;;;;;;5052452;28;20056;-89
2021/06/19 13:15:25;;;;;;;21.20;10.57;;;;;;;;;;5051948;28;20111;-89
2021/06/19 13:17:50;;;;;;;15.38;9.15;;;;;;;;;;5053504;28;20028;-89
2021/06/19 13:20:35;;;;;;;14.80;8.35;;;;;;;;;;5052111;28;20028;-89
2021/06/19 13:23:03;;;;;;;15.43;9.98;;;;;;;;;;5064096;28;20020;-89
2021/06/19 13:25:47;;;;;;;16.10;9.43;;;;;;;;;;5052228;28;20112;-89
2021/06/19 13:28:12;;;;;;;17.48;8.60;;;;;;;;;;5053889;28;20025;-89
2021/06/19 13:30:38;;;;;;;14.18;9.80;;;;;;;;;;5052400;28;20043;-89
2021/06/19 13:33:03;;;;;;;14.63;9.93;;;;;;;;;;5052927;28;20021;-89
2021/06/19 13:35:28;;;;;;;14.45;10.45;;;;;;;;;;5052227;28;20494;-90
2021/06/19 13:37:57;;;;;;;17.02;9.70;;;;;;;;;;5052218;28;20456;-89
2021/06/19 13:40:25;;;;;;;16.00;10.93;;;;;;;;;;5065116;28;20104;-88
2021/06/19 13:42:54;;;;;;;12.15;10.02;;;;;;;;;;5052126;28;20112;-89
2021/06/19 13:45:19;;;;;;;14.68;10.10;;;;;;;;;;5052030;28;20033;-89
2021/06/19 13:47:44;;;;;;;14.60;8.82;;;;;;;;;;5052265;28;20031;-89
2021/06/19 13:50:09;;;;;;;12.45;8.23;;;;;;;;;;5052221;28;20035;-89
2021/06/19 13:52:36;;;;;;;14.50;8.65;;;;;;;;;;5052301;28;20047;-90
2021/06/19 13:55:02;;;;;;;11.55;7.97;;;;;;;;;;5052142;28;20476;-89
2021/06/19 13:57:27;;;;;;;14.30;9.43;;;;;;;;;;5052302;28;20028;-89
2021/06/19 13:59:56;;;;;;;13.05;8.38;;;;;;;;;;5051899;28;20028;-89
2021/06/19 14:02:25;;;;;;;12.73;8.40;;;;;;;;;;5038465;28;20027;-91
2021/06/19 14:04:50;;;;;;;14.95;9.75;;;;;;;;;;5052479;28;20024;-89
2021/06/19 14:07:15;;;;;;;19.70;11.20;;;;;;;;;;5051994;28;20021;-90
2021/06/19 14:09:41;;;;;;;18.02;9.40;;;;;;;;;;5052347;28;20021;-90
2021/06/19 14:12:07;;;;;;;16.38;8.27;;;;;;;;;;5052057;28;20106;-89
2021/06/19 14:14:33;;;;;;;13.75;8.10;;;;;;;;;;5052272;28;20028;-90
2021/06/19 14:16:59;;;;;;;16.02;9.10;;;;;;;;;;5051826;28;20021;-89
2021/06/19 14:19:24;;;;;;;13.85;7.82;;;;;;;;;;5051919;28;20028;-91
2021/06/19 14:21:49;;;;;;;15.07;9.70;;;;;;;;;;5052268;28;20032;-90
2021/06/19 14:24:14;;;;;;;15.40;9.82;;;;;;;;;;5052397;28;20029;-90
2021/06/19 14:26:40;;;;;;;12.43;8.07;;;;;;;;;;5052249;28;20013;-91
2021/06/19 14:29:06;;;;;;;15.68;8.85;;;;;;;;;;5052186;28;20020;-90
2021/06/19 14:31:31;;;;;;;15.07;8.25;;;;;;;;;;5052897;28;20060;-91
2021/06/19 14:33:57;;;;;;;12.02;8.63;;;;;;;;;;5052007;28;20052;-91
2021/06/19 14:36:22;;;;;;;15.25;9.13;;;;;;;;;;5052990;28;20362;-89